CHH7677 ZBAA-ZSHC
Flight info
| Callsign | CHH7677 |
|---|---|
| Flight time | 1h 42m |
| Altitude | 33100 |
| Route | ELKUR W40 YQG W142 DALIM A593 DPX A470 OF W95 SAPIN A470 IGRAT |
| Aircraft | A339/H-SDE2E3FGHIJ4J5M1RWXYZ/LB2D1 |
Departure
| Time | 2026-05-08 10:16 |
|---|---|
| Airport | Beijing Capital International Airport (ZBAA) |
Arrival
| Time | 2026-05-08 11:58 |
|---|---|
| Airport | Hangzhou Xiaoshan International Airport (ZSHC) |
| Time | Latitude | Longitude | Altitude | Speed | Heading |
|---|---|---|---|---|---|
| 2026-05-08 09:40 | 40.07812 | 116.58997 | 103 ft | 0 kts | 263° |
| 2026-05-08 10:02 | 40.07813 | 116.59006 | 125 ft | 4 kts | 263° |
| 2026-05-08 10:02 | 40.07816 | 116.59041 | 127 ft | 4 kts | 263° |
| 2026-05-08 10:02 | 40.07819 | 116.59069 | 125 ft | 4 kts | 262° |
| 2026-05-08 10:03 | 40.07824 | 116.59103 | 125 ft | 4 kts | 252° |
| 2026-05-08 10:03 | 40.07835 | 116.59133 | 125 ft | 4 kts | 214° |
| 2026-05-08 10:03 | 40.07855 | 116.59138 | 127 ft | 4 kts | 173° |
| 2026-05-08 10:03 | 40.07875 | 116.59135 | 125 ft | 0 kts | 173° |
| 2026-05-08 10:06 | 40.07872 | 116.59135 | 125 ft | 2 kts | 173° |
| 2026-05-08 10:06 | 40.07820 | 116.59143 | 125 ft | 12 kts | 173° |
| 2026-05-08 10:07 | 40.07780 | 116.59157 | 125 ft | 2 kts | 155° |
| 2026-05-08 10:07 | 40.07770 | 116.59235 | 131 ft | 13 kts | 85° |
| 2026-05-08 10:07 | 40.07786 | 116.59346 | 121 ft | 10 kts | 66° |
| 2026-05-08 10:07 | 40.07842 | 116.59364 | 127 ft | 9 kts | 359° |
| 2026-05-08 10:08 | 40.07923 | 116.59352 | 127 ft | 14 kts | 353° |
| 2026-05-08 10:08 | 40.08034 | 116.59335 | 126 ft | 17 kts | 353° |
| 2026-05-08 10:08 | 40.08153 | 116.59316 | 128 ft | 18 kts | 353° |
| 2026-05-08 10:08 | 40.08286 | 116.59295 | 127 ft | 20 kts | 353° |
| 2026-05-08 10:09 | 40.08426 | 116.59273 | 128 ft | 21 kts | 352° |
| 2026-05-08 10:09 | 40.08513 | 116.59258 | 128 ft | 10 kts | 353° |
| 2026-05-08 10:09 | 40.08592 | 116.59246 | 125 ft | 12 kts | 353° |
| 2026-05-08 10:09 | 40.08685 | 116.59232 | 125 ft | 14 kts | 353° |
| 2026-05-08 10:10 | 40.08767 | 116.59220 | 126 ft | 8 kts | 353° |
| 2026-05-08 10:10 | 40.08810 | 116.59258 | 126 ft | 8 kts | 65° |
| 2026-05-08 10:10 | 40.08818 | 116.59332 | 128 ft | 0 kts | 84° |
| 2026-05-08 10:14 | 40.08819 | 116.59336 | 125 ft | 2 kts | 84° |
| 2026-05-08 10:14 | 40.08822 | 116.59380 | 128 ft | 9 kts | 83° |
| 2026-05-08 10:14 | 40.08829 | 116.59478 | 129 ft | 10 kts | 94° |
| 2026-05-08 10:14 | 40.08785 | 116.59509 | 125 ft | 7 kts | 169° |
| 2026-05-08 10:15 | 40.08767 | 116.59512 | 125 ft | 0 kts | 172° |
| 2026-05-08 10:15 | 40.08765 | 116.59512 | 126 ft | 3 kts | 172° |
| 2026-05-08 10:15 | 40.08483 | 116.59554 | 128 ft | 83 kts | 174° |
| 2026-05-08 10:16 | 40.07658 | 116.59683 | 123 ft | 154 kts | 173° |
| 2026-05-08 10:16 | 40.06470 | 116.59887 | 464 ft | 181 kts | 174° |
| 2026-05-08 10:16 | 40.05161 | 116.60115 | 1031 ft | 199 kts | 173° |
| 2026-05-08 10:16 | 40.03767 | 116.60349 | 1619 ft | 195 kts | 174° |
| 2026-05-08 10:17 | 40.02519 | 116.60563 | 1971 ft | 165 kts | 174° |
| 2026-05-08 10:17 | 40.01417 | 116.60747 | 2201 ft | 158 kts | 174° |
| 2026-05-08 10:17 | 40.00327 | 116.60920 | 2443 ft | 157 kts | 175° |
| 2026-05-08 10:17 | 39.99237 | 116.61087 | 2560 ft | 157 kts | 176° |
| 2026-05-08 10:18 | 39.98127 | 116.61254 | 2711 ft | 165 kts | 176° |
| 2026-05-08 10:18 | 39.96974 | 116.61423 | 2840 ft | 167 kts | 176° |
| 2026-05-08 10:18 | 39.95818 | 116.61596 | 3086 ft | 168 kts | 176° |
| 2026-05-08 10:18 | 39.94670 | 116.61768 | 3332 ft | 168 kts | 176° |
| 2026-05-08 10:19 | 39.93461 | 116.61953 | 3605 ft | 188 kts | 176° |
| 2026-05-08 10:19 | 39.92058 | 116.62159 | 3897 ft | 217 kts | 175° |
| 2026-05-08 10:19 | 39.90507 | 116.62390 | 4297 ft | 234 kts | 175° |
| 2026-05-08 10:20 | 39.87069 | 116.62912 | 5326 ft | 255 kts | 175° |
| 2026-05-08 10:20 | 39.85295 | 116.63184 | 5836 ft | 258 kts | 175° |
| 2026-05-08 10:20 | 39.83493 | 116.63458 | 6466 ft | 262 kts | 176° |
| 2026-05-08 10:20 | 39.81662 | 116.63739 | 7083 ft | 270 kts | 176° |
| 2026-05-08 10:21 | 39.79785 | 116.64027 | 7695 ft | 277 kts | 176° |
| 2026-05-08 10:21 | 39.77823 | 116.64329 | 8324 ft | 285 kts | 176° |
| 2026-05-08 10:21 | 39.75834 | 116.64634 | 8942 ft | 293 kts | 177° |
| 2026-05-08 10:21 | 39.73778 | 116.64947 | 9577 ft | 300 kts | 177° |
| 2026-05-08 10:22 | 39.71668 | 116.65267 | 10161 ft | 309 kts | 177° |
| 2026-05-08 10:22 | 39.69463 | 116.65596 | 10386 ft | 330 kts | 177° |
| 2026-05-08 10:22 | 39.67106 | 116.65948 | 10646 ft | 348 kts | 177° |
| 2026-05-08 10:22 | 39.64731 | 116.66400 | 11299 ft | 352 kts | 172° |
| 2026-05-08 10:23 | 39.62284 | 116.67051 | 11880 ft | 359 kts | 171° |
| 2026-05-08 10:23 | 39.59812 | 116.67708 | 12463 ft | 365 kts | 171° |
| 2026-05-08 10:23 | 39.57303 | 116.68370 | 13061 ft | 370 kts | 171° |
| 2026-05-08 10:23 | 39.54809 | 116.69154 | 13640 ft | 377 kts | 164° |
| 2026-05-08 10:24 | 39.52372 | 116.70476 | 14234 ft | 382 kts | 153° |
| 2026-05-08 10:24 | 39.50047 | 116.72167 | 14800 ft | 386 kts | 151° |
| 2026-05-08 10:24 | 39.47693 | 116.73882 | 15377 ft | 390 kts | 151° |
| 2026-05-08 10:24 | 39.45307 | 116.75601 | 15934 ft | 393 kts | 152° |
| 2026-05-08 10:25 | 39.42898 | 116.77324 | 16494 ft | 398 kts | 152° |
| 2026-05-08 10:25 | 39.40458 | 116.79064 | 17053 ft | 402 kts | 152° |
| 2026-05-08 10:25 | 39.38004 | 116.80810 | 17635 ft | 404 kts | 152° |
| 2026-05-08 10:25 | 39.35528 | 116.82571 | 18190 ft | 408 kts | 152° |
| 2026-05-08 10:26 | 39.32980 | 116.84233 | 18409 ft | 410 kts | 159° |
| 2026-05-08 10:26 | 39.30326 | 116.85560 | 18506 ft | 410 kts | 160° |
| 2026-05-08 10:26 | 39.27691 | 116.86870 | 18591 ft | 410 kts | 160° |
| 2026-05-08 10:26 | 39.25027 | 116.88205 | 18662 ft | 411 kts | 160° |
| 2026-05-08 10:27 | 39.22361 | 116.89546 | 18666 ft | 411 kts | 160° |
| 2026-05-08 10:27 | 39.19671 | 116.90901 | 18708 ft | 422 kts | 160° |
| 2026-05-08 10:27 | 39.16908 | 116.92293 | 19156 ft | 426 kts | 160° |
| 2026-05-08 10:27 | 39.14080 | 116.93387 | 19670 ft | 423 kts | 173° |
| 2026-05-08 10:28 | 39.11178 | 116.93518 | 20194 ft | 419 kts | 189° |
| 2026-05-08 10:28 | 39.08389 | 116.92680 | 20653 ft | 414 kts | 206° |
| 2026-05-08 10:28 | 39.05808 | 116.91091 | 21162 ft | 412 kts | 214° |
| 2026-05-08 10:28 | 39.03280 | 116.89306 | 21654 ft | 415 kts | 214° |
| 2026-05-08 10:29 | 39.00714 | 116.87572 | 22159 ft | 419 kts | 212° |
| 2026-05-08 10:29 | 38.98084 | 116.85923 | 22669 ft | 423 kts | 210° |
| 2026-05-08 10:29 | 38.95401 | 116.84329 | 23175 ft | 426 kts | 209° |
| 2026-05-08 10:29 | 38.92682 | 116.82761 | 23662 ft | 429 kts | 208° |
| 2026-05-08 10:30 | 38.89948 | 116.81204 | 24119 ft | 431 kts | 209° |
| 2026-05-08 10:30 | 38.87182 | 116.79634 | 24582 ft | 433 kts | 209° |
| 2026-05-08 10:30 | 38.84428 | 116.78069 | 25032 ft | 435 kts | 209° |
| 2026-05-08 10:30 | 38.81642 | 116.76488 | 25477 ft | 438 kts | 209° |
| 2026-05-08 10:31 | 38.78854 | 116.74909 | 25908 ft | 440 kts | 209° |
| 2026-05-08 10:31 | 38.76052 | 116.73323 | 26362 ft | 441 kts | 209° |
| 2026-05-08 10:31 | 38.73237 | 116.71731 | 26791 ft | 444 kts | 210° |
| 2026-05-08 10:31 | 38.70394 | 116.70124 | 27231 ft | 446 kts | 210° |
| 2026-05-08 10:32 | 38.67561 | 116.68526 | 27665 ft | 448 kts | 209° |
| 2026-05-08 10:32 | 38.64603 | 116.67142 | 28077 ft | 456 kts | 202° |
| 2026-05-08 10:32 | 38.61529 | 116.66239 | 28481 ft | 463 kts | 195° |
| 2026-05-08 10:32 | 38.58297 | 116.65796 | 28934 ft | 467 kts | 190° |
| 2026-05-08 10:33 | 38.55056 | 116.65464 | 29342 ft | 469 kts | 190° |
| 2026-05-08 10:33 | 38.51786 | 116.65104 | 29697 ft | 471 kts | 191° |
| 2026-05-08 10:33 | 38.48513 | 116.64732 | 30083 ft | 474 kts | 191° |
| 2026-05-08 10:33 | 38.45219 | 116.64354 | 30449 ft | 475 kts | 191° |
| 2026-05-08 10:34 | 38.41913 | 116.63974 | 30816 ft | 477 kts | 191° |
| 2026-05-08 10:34 | 38.38599 | 116.63594 | 31174 ft | 477 kts | 191° |
| 2026-05-08 10:34 | 38.35300 | 116.63219 | 31628 ft | 477 kts | 192° |
| 2026-05-08 10:34 | 38.31971 | 116.62936 | 31912 ft | 484 kts | 187° |
| 2026-05-08 10:35 | 38.28569 | 116.63153 | 32245 ft | 493 kts | 180° |
| 2026-05-08 10:35 | 38.25169 | 116.63930 | 32557 ft | 502 kts | 172° |
| 2026-05-08 10:35 | 38.21803 | 116.65177 | 32807 ft | 506 kts | 169° |
| 2026-05-08 10:35 | 38.18414 | 116.66472 | 33023 ft | 508 kts | 169° |
| 2026-05-08 10:36 | 38.15023 | 116.67750 | 33087 ft | 512 kts | 171° |
| 2026-05-08 10:36 | 38.08201 | 116.70297 | 33091 ft | 514 kts | 170° |
| 2026-05-08 10:37 | 38.01334 | 116.72923 | 33090 ft | 514 kts | 170° |
| 2026-05-08 10:37 | 37.94492 | 116.75537 | 33097 ft | 514 kts | 170° |
| 2026-05-08 10:38 | 37.88790 | 116.77705 | 33101 ft | 514 kts | 170° |
| 2026-05-08 10:38 | 37.80814 | 116.80728 | 33102 ft | 514 kts | 170° |
| 2026-05-08 10:39 | 37.75084 | 116.82896 | 33101 ft | 514 kts | 170° |
| 2026-05-08 10:39 | 37.68267 | 116.85476 | 33086 ft | 514 kts | 171° |
| 2026-05-08 10:40 | 37.61401 | 116.88060 | 33103 ft | 515 kts | 171° |
| 2026-05-08 10:40 | 37.54525 | 116.90644 | 33107 ft | 516 kts | 171° |
| 2026-05-08 10:41 | 37.47640 | 116.93229 | 33079 ft | 516 kts | 171° |
| 2026-05-08 10:41 | 37.40753 | 116.95813 | 33114 ft | 516 kts | 172° |
| 2026-05-08 10:42 | 37.33875 | 116.98385 | 33117 ft | 516 kts | 172° |
| 2026-05-08 10:42 | 37.27028 | 117.01156 | 33125 ft | 521 kts | 167° |
| 2026-05-08 10:43 | 37.20229 | 117.04370 | 33128 ft | 520 kts | 167° |
| 2026-05-08 10:43 | 37.13485 | 117.07531 | 33134 ft | 520 kts | 168° |
| 2026-05-08 10:44 | 37.06684 | 117.10702 | 33134 ft | 521 kts | 168° |
| 2026-05-08 10:44 | 36.99891 | 117.13864 | 33143 ft | 521 kts | 168° |
| 2026-05-08 10:45 | 36.93109 | 117.17018 | 33151 ft | 520 kts | 168° |
| 2026-05-08 10:45 | 36.86319 | 117.20070 | 33143 ft | 514 kts | 173° |
| 2026-05-08 10:46 | 36.79401 | 117.21569 | 33150 ft | 496 kts | 186° |
| 2026-05-08 10:46 | 36.72577 | 117.21552 | 33162 ft | 487 kts | 191° |
| 2026-05-08 10:47 | 36.65838 | 117.21479 | 33170 ft | 488 kts | 190° |
| 2026-05-08 10:47 | 36.59057 | 117.21430 | 33166 ft | 488 kts | 190° |
| 2026-05-08 10:48 | 36.52254 | 117.21382 | 33166 ft | 486 kts | 190° |
| 2026-05-08 10:48 | 36.45486 | 117.21351 | 33178 ft | 489 kts | 188° |
| 2026-05-08 10:49 | 36.38632 | 117.22459 | 33191 ft | 506 kts | 175° |
| 2026-05-08 10:49 | 36.31813 | 117.24986 | 33192 ft | 511 kts | 172° |
| 2026-05-08 10:50 | 36.25008 | 117.27543 | 33193 ft | 510 kts | 172° |
| 2026-05-08 10:50 | 36.18202 | 117.30070 | 33196 ft | 510 kts | 172° |
| 2026-05-08 10:51 | 36.11439 | 117.32572 | 33200 ft | 511 kts | 172° |
| 2026-05-08 10:51 | 36.04628 | 117.35088 | 33209 ft | 510 kts | 171° |
| 2026-05-08 10:52 | 35.97829 | 117.37601 | 33200 ft | 510 kts | 171° |
| 2026-05-08 10:52 | 35.91027 | 117.40151 | 33200 ft | 510 kts | 171° |
| 2026-05-08 10:53 | 35.84229 | 117.42701 | 33203 ft | 510 kts | 171° |
| 2026-05-08 10:53 | 35.77446 | 117.45234 | 33214 ft | 509 kts | 171° |
| 2026-05-08 10:54 | 35.70661 | 117.47762 | 33216 ft | 508 kts | 171° |
| 2026-05-08 10:54 | 35.63929 | 117.50266 | 33208 ft | 508 kts | 171° |
| 2026-05-08 10:55 | 35.57155 | 117.52781 | 33212 ft | 508 kts | 171° |
| 2026-05-08 10:55 | 35.50374 | 117.55295 | 33221 ft | 508 kts | 171° |
| 2026-05-08 10:56 | 35.43587 | 117.57806 | 33222 ft | 508 kts | 171° |
| 2026-05-08 10:56 | 35.36817 | 117.60306 | 33217 ft | 508 kts | 171° |
| 2026-05-08 10:57 | 35.30052 | 117.62802 | 33222 ft | 506 kts | 171° |
| 2026-05-08 10:57 | 35.19979 | 117.66507 | 33227 ft | 506 kts | 171° |
| 2026-05-08 10:58 | 35.13234 | 117.68983 | 33229 ft | 506 kts | 171° |
| 2026-05-08 10:58 | 35.06486 | 117.71456 | 33219 ft | 504 kts | 171° |
| 2026-05-08 10:59 | 34.99764 | 117.73918 | 33231 ft | 504 kts | 171° |
| 2026-05-08 10:59 | 34.93048 | 117.76375 | 33236 ft | 504 kts | 171° |
| 2026-05-08 11:00 | 34.86333 | 117.78828 | 33238 ft | 504 kts | 171° |
| 2026-05-08 11:00 | 34.79677 | 117.81264 | 33245 ft | 499 kts | 171° |
| 2026-05-08 11:01 | 34.73014 | 117.83665 | 33247 ft | 500 kts | 171° |
| 2026-05-08 11:01 | 34.66345 | 117.86057 | 33245 ft | 500 kts | 171° |
| 2026-05-08 11:02 | 34.56324 | 117.89652 | 33240 ft | 498 kts | 171° |
| 2026-05-08 11:03 | 34.49720 | 117.92019 | 33236 ft | 497 kts | 171° |
| 2026-05-08 11:03 | 34.43085 | 117.94390 | 33231 ft | 496 kts | 171° |
| 2026-05-08 11:04 | 34.36456 | 117.96756 | 33231 ft | 496 kts | 171° |
| 2026-05-08 11:04 | 34.29821 | 117.99119 | 33245 ft | 500 kts | 171° |
| 2026-05-08 11:05 | 34.23117 | 118.01527 | 33248 ft | 502 kts | 170° |
| 2026-05-08 11:05 | 34.16453 | 118.03968 | 33258 ft | 502 kts | 170° |
| 2026-05-08 11:06 | 34.09761 | 118.06408 | 33254 ft | 502 kts | 170° |
| 2026-05-08 11:06 | 34.03078 | 118.08833 | 33254 ft | 501 kts | 170° |
| 2026-05-08 11:07 | 33.96390 | 118.11262 | 33255 ft | 501 kts | 170° |
| 2026-05-08 11:07 | 33.89701 | 118.13699 | 33258 ft | 502 kts | 170° |
| 2026-05-08 11:08 | 33.83014 | 118.16131 | 33261 ft | 502 kts | 170° |
| 2026-05-08 11:08 | 33.76344 | 118.18555 | 33258 ft | 501 kts | 169° |
| 2026-05-08 11:09 | 33.69702 | 118.20976 | 33270 ft | 501 kts | 169° |
| 2026-05-08 11:09 | 33.63037 | 118.23401 | 33263 ft | 501 kts | 169° |
| 2026-05-08 11:10 | 33.56361 | 118.25824 | 33238 ft | 501 kts | 169° |
| 2026-05-08 11:10 | 33.49702 | 118.28237 | 33252 ft | 500 kts | 169° |
| 2026-05-08 11:11 | 33.43028 | 118.30651 | 33260 ft | 500 kts | 169° |
| 2026-05-08 11:11 | 33.36364 | 118.33058 | 33257 ft | 500 kts | 169° |
| 2026-05-08 11:12 | 33.29744 | 118.35445 | 33242 ft | 499 kts | 170° |
| 2026-05-08 11:12 | 33.23133 | 118.37829 | 33257 ft | 495 kts | 170° |
| 2026-05-08 11:13 | 33.16530 | 118.40204 | 33257 ft | 495 kts | 170° |
| 2026-05-08 11:13 | 33.09933 | 118.42578 | 33256 ft | 495 kts | 170° |
| 2026-05-08 11:14 | 33.03335 | 118.44950 | 33259 ft | 495 kts | 170° |
| 2026-05-08 11:14 | 32.96773 | 118.47304 | 33259 ft | 495 kts | 170° |
| 2026-05-08 11:15 | 32.90170 | 118.49671 | 33258 ft | 495 kts | 170° |
| 2026-05-08 11:15 | 32.83570 | 118.52032 | 33260 ft | 495 kts | 170° |
| 2026-05-08 11:16 | 32.76965 | 118.54394 | 33269 ft | 494 kts | 170° |
| 2026-05-08 11:16 | 32.70369 | 118.56746 | 33265 ft | 494 kts | 171° |
| 2026-05-08 11:17 | 32.63827 | 118.59051 | 33264 ft | 493 kts | 171° |
| 2026-05-08 11:17 | 32.57232 | 118.61277 | 33263 ft | 492 kts | 171° |
| 2026-05-08 11:18 | 32.50636 | 118.63506 | 33265 ft | 492 kts | 172° |
| 2026-05-08 11:18 | 32.44049 | 118.65739 | 33263 ft | 492 kts | 172° |
| 2026-05-08 11:19 | 32.37466 | 118.67977 | 33258 ft | 491 kts | 172° |
| 2026-05-08 11:19 | 32.30927 | 118.70184 | 33261 ft | 492 kts | 173° |
| 2026-05-08 11:20 | 32.24341 | 118.72403 | 33256 ft | 491 kts | 174° |
| 2026-05-08 11:20 | 32.17771 | 118.74605 | 33261 ft | 491 kts | 174° |
| 2026-05-08 11:21 | 32.11218 | 118.76794 | 33264 ft | 491 kts | 174° |
| 2026-05-08 11:21 | 32.04614 | 118.78999 | 33257 ft | 491 kts | 174° |
| 2026-05-08 11:22 | 31.98038 | 118.81196 | 33259 ft | 490 kts | 174° |
| 2026-05-08 11:22 | 31.91462 | 118.83305 | 33261 ft | 489 kts | 175° |
| 2026-05-08 11:23 | 31.84889 | 118.85383 | 33256 ft | 489 kts | 175° |
| 2026-05-08 11:23 | 31.78393 | 118.87765 | 33251 ft | 501 kts | 167° |
| 2026-05-08 11:23 | 31.75260 | 118.89655 | 33250 ft | 514 kts | 158° |
| 2026-05-08 11:24 | 31.72317 | 118.92103 | 33246 ft | 524 kts | 149° |
| 2026-05-08 11:24 | 31.66793 | 118.97771 | 33241 ft | 521 kts | 152° |
| 2026-05-08 11:25 | 31.60903 | 119.02687 | 33259 ft | 522 kts | 152° |
| 2026-05-08 11:25 | 31.56096 | 119.06983 | 33269 ft | 523 kts | 151° |
| 2026-05-08 11:26 | 31.50293 | 119.12136 | 33268 ft | 523 kts | 152° |
| 2026-05-08 11:26 | 31.44497 | 119.17225 | 33275 ft | 522 kts | 152° |
| 2026-05-08 11:27 | 31.38654 | 119.22322 | 33281 ft | 522 kts | 152° |
| 2026-05-08 11:27 | 31.32866 | 119.27363 | 33267 ft | 522 kts | 151° |
| 2026-05-08 11:28 | 31.27035 | 119.32435 | 33279 ft | 523 kts | 151° |
| 2026-05-08 11:28 | 31.21190 | 119.37513 | 33279 ft | 523 kts | 151° |
| 2026-05-08 11:29 | 31.15357 | 119.42591 | 33280 ft | 523 kts | 151° |
| 2026-05-08 11:29 | 31.09528 | 119.47691 | 33288 ft | 523 kts | 151° |
| 2026-05-08 11:30 | 31.03709 | 119.52772 | 33283 ft | 523 kts | 151° |
| 2026-05-08 11:30 | 30.97915 | 119.57818 | 33281 ft | 523 kts | 151° |
| 2026-05-08 11:31 | 30.92086 | 119.62887 | 33279 ft | 523 kts | 151° |
| 2026-05-08 11:31 | 30.86239 | 119.67962 | 33285 ft | 523 kts | 151° |
| 2026-05-08 11:32 | 30.80409 | 119.73016 | 33254 ft | 523 kts | 150° |
| 2026-05-08 11:32 | 30.74571 | 119.78066 | 33284 ft | 522 kts | 150° |
| 2026-05-08 11:33 | 30.68749 | 119.83154 | 33289 ft | 524 kts | 149° |
| 2026-05-08 11:33 | 30.65874 | 119.85781 | 33136 ft | 522 kts | 149° |
| 2026-05-08 11:33 | 30.62941 | 119.88180 | 32538 ft | 512 kts | 157° |
| 2026-05-08 11:33 | 30.59778 | 119.89967 | 31723 ft | 499 kts | 168° |
| 2026-05-08 11:34 | 30.56473 | 119.91005 | 30952 ft | 483 kts | 179° |
| 2026-05-08 11:34 | 30.53196 | 119.91269 | 30292 ft | 464 kts | 191° |
| 2026-05-08 11:34 | 30.50057 | 119.90792 | 29482 ft | 445 kts | 202° |
| 2026-05-08 11:34 | 30.47127 | 119.89886 | 28697 ft | 438 kts | 205° |
| 2026-05-08 11:35 | 30.44363 | 119.88580 | 27920 ft | 422 kts | 216° |
| 2026-05-08 11:35 | 30.42003 | 119.86672 | 27191 ft | 407 kts | 228° |
| 2026-05-08 11:35 | 30.40143 | 119.84268 | 26439 ft | 396 kts | 240° |
| 2026-05-08 11:35 | 30.38852 | 119.81500 | 25686 ft | 387 kts | 252° |
| 2026-05-08 11:36 | 30.38212 | 119.78513 | 24955 ft | 381 kts | 265° |
| 2026-05-08 11:36 | 30.38252 | 119.75470 | 24248 ft | 377 kts | 278° |
| 2026-05-08 11:36 | 30.38981 | 119.72554 | 23494 ft | 377 kts | 292° |
| 2026-05-08 11:36 | 30.40361 | 119.69984 | 22736 ft | 378 kts | 306° |
| 2026-05-08 11:37 | 30.42325 | 119.67984 | 22393 ft | 376 kts | 322° |
| 2026-05-08 11:37 | 30.44621 | 119.66411 | 22296 ft | 389 kts | 324° |
| 2026-05-08 11:37 | 30.46959 | 119.64826 | 22180 ft | 388 kts | 324° |
| 2026-05-08 11:37 | 30.49286 | 119.63253 | 22077 ft | 386 kts | 324° |
| 2026-05-08 11:38 | 30.51618 | 119.61674 | 21965 ft | 387 kts | 324° |
| 2026-05-08 11:38 | 30.53908 | 119.60119 | 21896 ft | 387 kts | 324° |
| 2026-05-08 11:38 | 30.56226 | 119.58542 | 21894 ft | 387 kts | 324° |
| 2026-05-08 11:38 | 30.58550 | 119.56962 | 21892 ft | 387 kts | 324° |
| 2026-05-08 11:39 | 30.60874 | 119.55382 | 21913 ft | 387 kts | 324° |
| 2026-05-08 11:39 | 30.63194 | 119.53796 | 21903 ft | 389 kts | 324° |
| 2026-05-08 11:39 | 30.65528 | 119.52205 | 21879 ft | 386 kts | 324° |
| 2026-05-08 11:39 | 30.67839 | 119.50633 | 21876 ft | 387 kts | 324° |
| 2026-05-08 11:40 | 30.70172 | 119.49046 | 21889 ft | 387 kts | 324° |
| 2026-05-08 11:40 | 30.72542 | 119.47579 | 21891 ft | 393 kts | 332° |
| 2026-05-08 11:40 | 30.75207 | 119.46762 | 21888 ft | 405 kts | 346° |
| 2026-05-08 11:40 | 30.78014 | 119.46746 | 21894 ft | 417 kts | 360° |
| 2026-05-08 11:41 | 30.80935 | 119.47590 | 21885 ft | 429 kts | 15° |
| 2026-05-08 11:41 | 30.83566 | 119.49233 | 21874 ft | 442 kts | 29° |
| 2026-05-08 11:41 | 30.85888 | 119.51640 | 21887 ft | 453 kts | 43° |
| 2026-05-08 11:41 | 30.87705 | 119.54639 | 21886 ft | 458 kts | 58° |
| 2026-05-08 11:42 | 30.88908 | 119.58102 | 21888 ft | 463 kts | 73° |
| 2026-05-08 11:42 | 30.89411 | 119.61804 | 21893 ft | 466 kts | 87° |
| 2026-05-08 11:42 | 30.89186 | 119.65556 | 21857 ft | 463 kts | 101° |
| 2026-05-08 11:42 | 30.88281 | 119.69139 | 21416 ft | 459 kts | 115° |
| 2026-05-08 11:43 | 30.86698 | 119.72308 | 21236 ft | 448 kts | 131° |
| 2026-05-08 11:43 | 30.84546 | 119.74894 | 21130 ft | 443 kts | 146° |
| 2026-05-08 11:43 | 30.81971 | 119.76764 | 21036 ft | 433 kts | 161° |
| 2026-05-08 11:43 | 30.79150 | 119.77819 | 20919 ft | 421 kts | 175° |
| 2026-05-08 11:44 | 30.76259 | 119.78514 | 20882 ft | 429 kts | 171° |
| 2026-05-08 11:44 | 30.73462 | 119.79828 | 20731 ft | 437 kts | 158° |
| 2026-05-08 11:44 | 30.70824 | 119.81614 | 20180 ft | 440 kts | 153° |
| 2026-05-08 11:44 | 30.68320 | 119.83508 | 19369 ft | 445 kts | 150° |
| 2026-05-08 11:45 | 30.65782 | 119.85721 | 18356 ft | 451 kts | 147° |
| 2026-05-08 11:45 | 30.63284 | 119.87848 | 17519 ft | 439 kts | 152° |
| 2026-05-08 11:45 | 30.60704 | 119.89592 | 16402 ft | 424 kts | 155° |
| 2026-05-08 11:45 | 30.58140 | 119.91227 | 15226 ft | 416 kts | 154° |
| 2026-05-08 11:46 | 30.55628 | 119.92810 | 14119 ft | 406 kts | 153° |
| 2026-05-08 11:46 | 30.53171 | 119.94359 | 12923 ft | 397 kts | 153° |
| 2026-05-08 11:46 | 30.50768 | 119.95879 | 11714 ft | 389 kts | 152° |
| 2026-05-08 11:46 | 30.48412 | 119.97373 | 10551 ft | 383 kts | 152° |
| 2026-05-08 11:47 | 30.46140 | 119.98814 | 10055 ft | 359 kts | 152° |
| 2026-05-08 11:47 | 30.44034 | 120.00150 | 9833 ft | 329 kts | 152° |
| 2026-05-08 11:47 | 30.42115 | 120.01366 | 9668 ft | 301 kts | 152° |
| 2026-05-08 11:47 | 30.40329 | 120.02499 | 9343 ft | 287 kts | 152° |
| 2026-05-08 11:48 | 30.38594 | 120.03597 | 8864 ft | 281 kts | 151° |
| 2026-05-08 11:48 | 30.36893 | 120.04673 | 8356 ft | 276 kts | 150° |
| 2026-05-08 11:48 | 30.35212 | 120.05734 | 7836 ft | 272 kts | 150° |
| 2026-05-08 11:48 | 30.33582 | 120.06765 | 7351 ft | 266 kts | 149° |
| 2026-05-08 11:49 | 30.31985 | 120.07774 | 7108 ft | 260 kts | 149° |
| 2026-05-08 11:49 | 30.30388 | 120.08787 | 6742 ft | 265 kts | 149° |
| 2026-05-08 11:49 | 30.28788 | 120.09800 | 6303 ft | 258 kts | 148° |
| 2026-05-08 11:49 | 30.27218 | 120.10792 | 5828 ft | 249 kts | 148° |
| 2026-05-08 11:50 | 30.25733 | 120.11731 | 5337 ft | 244 kts | 148° |
| 2026-05-08 11:50 | 30.24264 | 120.12661 | 4931 ft | 238 kts | 148° |
| 2026-05-08 11:50 | 30.22817 | 120.13571 | 4409 ft | 236 kts | 149° |
| 2026-05-08 11:50 | 30.21272 | 120.14113 | 4192 ft | 229 kts | 172° |
| 2026-05-08 11:51 | 30.19729 | 120.14167 | 4091 ft | 215 kts | 174° |
| 2026-05-08 11:51 | 30.18274 | 120.14205 | 3955 ft | 204 kts | 174° |
| 2026-05-08 11:51 | 30.16869 | 120.14235 | 3710 ft | 201 kts | 174° |
| 2026-05-08 11:51 | 30.15473 | 120.14276 | 3455 ft | 198 kts | 171° |
| 2026-05-08 11:52 | 30.14239 | 120.14810 | 3187 ft | 186 kts | 137° |
| 2026-05-08 11:52 | 30.13568 | 120.15983 | 3059 ft | 170 kts | 101° |
| 2026-05-08 11:52 | 30.13584 | 120.17341 | 3000 ft | 175 kts | 74° |
| 2026-05-08 11:52 | 30.14054 | 120.18616 | 3011 ft | 172 kts | 63° |
| 2026-05-08 11:53 | 30.14625 | 120.19843 | 3011 ft | 173 kts | 64° |
| 2026-05-08 11:53 | 30.15169 | 120.21085 | 3010 ft | 172 kts | 64° |
| 2026-05-08 11:53 | 30.15697 | 120.22300 | 3008 ft | 170 kts | 64° |
| 2026-05-08 11:53 | 30.16242 | 120.23550 | 2988 ft | 175 kts | 64° |
| 2026-05-08 11:54 | 30.16786 | 120.24786 | 2986 ft | 173 kts | 64° |
| 2026-05-08 11:54 | 30.17324 | 120.26016 | 2877 ft | 168 kts | 64° |
| 2026-05-08 11:54 | 30.17844 | 120.27202 | 2665 ft | 164 kts | 64° |
| 2026-05-08 11:54 | 30.18355 | 120.28364 | 2446 ft | 159 kts | 64° |
| 2026-05-08 11:55 | 30.18839 | 120.29469 | 2229 ft | 151 kts | 65° |
| 2026-05-08 11:55 | 30.19323 | 120.30573 | 2022 ft | 152 kts | 65° |
| 2026-05-08 11:55 | 30.19805 | 120.31674 | 1816 ft | 155 kts | 65° |
| 2026-05-08 11:55 | 30.20273 | 120.32735 | 1603 ft | 141 kts | 65° |
| 2026-05-08 11:56 | 30.20702 | 120.33719 | 1431 ft | 142 kts | 65° |
| 2026-05-08 11:56 | 30.21148 | 120.34728 | 1235 ft | 136 kts | 65° |
| 2026-05-08 11:56 | 30.21582 | 120.35704 | 1014 ft | 137 kts | 65° |
| 2026-05-08 11:56 | 30.22011 | 120.36668 | 819 ft | 139 kts | 66° |
| 2026-05-08 11:57 | 30.22428 | 120.37677 | 633 ft | 137 kts | 66° |
| 2026-05-08 11:57 | 30.22872 | 120.38667 | 463 ft | 140 kts | 64° |
| 2026-05-08 11:57 | 30.23320 | 120.39651 | 276 ft | 138 kts | 65° |
| 2026-05-08 11:57 | 30.23742 | 120.40639 | 121 ft | 134 kts | 65° |
| 2026-05-08 11:58 | 30.24165 | 120.41615 | 47 ft | 133 kts | 64° |
| 2026-05-08 11:58 | 30.24547 | 120.42466 | 34 ft | 98 kts | 61° |
| 2026-05-08 11:58 | 30.24711 | 120.42915 | 37 ft | 36 kts | 82° |
| 2026-05-08 11:59 | 30.24723 | 120.43046 | 39 ft | 7 kts | 87° |
| 2026-05-08 11:59 | 30.24723 | 120.43115 | 38 ft | 10 kts | 90° |
| 2026-05-08 11:59 | 30.24722 | 120.43203 | 38 ft | 12 kts | 90° |
| 2026-05-08 11:59 | 30.24721 | 120.43305 | 38 ft | 10 kts | 92° |
| 2026-05-08 12:00 | 30.24677 | 120.43365 | 37 ft | 12 kts | 150° |
| 2026-05-08 12:00 | 30.24588 | 120.43419 | 38 ft | 18 kts | 153° |
| 2026-05-08 12:00 | 30.24463 | 120.43493 | 38 ft | 18 kts | 153° |
| 2026-05-08 12:00 | 30.24383 | 120.43539 | 38 ft | 12 kts | 153° |
| 2026-05-08 12:01 | 30.24306 | 120.43568 | 38 ft | 11 kts | 186° |
| 2026-05-08 12:01 | 30.24279 | 120.43513 | 38 ft | 8 kts | 243° |
| 2026-05-08 12:01 | 30.24248 | 120.43449 | 38 ft | 10 kts | 240° |
| 2026-05-08 12:01 | 30.24209 | 120.43368 | 38 ft | 9 kts | 243° |
| 2026-05-08 12:02 | 30.24182 | 120.43308 | 38 ft | 7 kts | 241° |
| 2026-05-08 12:02 | 30.24156 | 120.43252 | 38 ft | 9 kts | 243° |
| 2026-05-08 12:02 | 30.24146 | 120.43229 | 38 ft | 3 kts | 244° |
| 2026-05-08 12:02 | 30.24135 | 120.43201 | 38 ft | 0 kts | 244° |
| 2026-05-08 12:03 | 30.24134 | 120.43201 | 38 ft | 0 kts | 244° |